sensor_id;sensor_type;location;lat;lon;timestamp;temperature;humidity
65046;DHT22;54657;52.022;5.534;2023-07-09T00:02:13;24.20;63.60
65046;DHT22;54657;52.022;5.534;2023-07-09T00:04:39;24.20;64.30
65046;DHT22;54657;52.022;5.534;2023-07-09T00:07:05;24.10;63.70
65046;DHT22;54657;52.022;5.534;2023-07-09T00:09:31;24.10;63.90
65046;DHT22;54657;52.022;5.534;2023-07-09T00:11:57;24.10;64.00
65046;DHT22;54657;52.022;5.534;2023-07-09T00:14:23;24.10;63.90
65046;DHT22;54657;52.022;5.534;2023-07-09T00:16:49;24.10;64.10
65046;DHT22;54657;52.022;5.534;2023-07-09T00:19:17;24.10;64.10
65046;DHT22;54657;52.022;5.534;2023-07-09T00:21:44;24.10;64.30
65046;DHT22;54657;52.022;5.534;2023-07-09T00:24:13;24.10;64.50
65046;DHT22;54657;52.022;5.534;2023-07-09T00:26:40;24.10;64.80
65046;DHT22;54657;52.022;5.534;2023-07-09T00:29:10;24.10;64.70
65046;DHT22;54657;52.022;5.534;2023-07-09T00:31:36;24.00;65.10
65046;DHT22;54657;52.022;5.534;2023-07-09T00:34:08;24.00;65.00
65046;DHT22;54657;52.022;5.534;2023-07-09T00:36:37;23.90;65.20
65046;DHT22;54657;52.022;5.534;2023-07-09T00:39:03;24.00;65.30
65046;DHT22;54657;52.022;5.534;2023-07-09T00:41:35;23.90;65.30
65046;DHT22;54657;52.022;5.534;2023-07-09T00:44:29;23.90;65.60
65046;DHT22;54657;52.022;5.534;2023-07-09T00:49:33;23.80;66.00
65046;DHT22;54657;52.022;5.534;2023-07-09T00:52:02;23.90;67.10
65046;DHT22;54657;52.022;5.534;2023-07-09T00:54:38;23.80;66.40
65046;DHT22;54657;52.022;5.534;2023-07-09T00:57:12;23.80;67.40
65046;DHT22;54657;52.022;5.534;2023-07-09T00:59:39;23.90;67.30
65046;DHT22;54657;52.022;5.534;2023-07-09T01:02:07;23.90;66.90
65046;DHT22;54657;52.022;5.534;2023-07-09T01:04:33;23.90;67.10
65046;DHT22;54657;52.022;5.534;2023-07-09T01:07:00;23.80;67.10
65046;DHT22;54657;52.022;5.534;2023-07-09T01:09:26;23.80;67.20
65046;DHT22;54657;52.022;5.534;2023-07-09T01:11:52;23.90;67.40
65046;DHT22;54657;52.022;5.534;2023-07-09T01:14:22;23.90;67.50
65046;DHT22;54657;52.022;5.534;2023-07-09T01:16:55;23.90;67.50
65046;DHT22;54657;52.022;5.534;2023-07-09T01:19:29;23.80;67.50
65046;DHT22;54657;52.022;5.534;2023-07-09T01:21:56;23.80;67.80
65046;DHT22;54657;52.022;5.534;2023-07-09T01:27:26;23.70;68.70
65046;DHT22;54657;52.022;5.534;2023-07-09T01:29:53;23.70;67.90
65046;DHT22;54657;52.022;5.534;2023-07-09T01:32:20;23.60;67.70
65046;DHT22;54657;52.022;5.534;2023-07-09T01:34:48;23.60;67.70
65046;DHT22;54657;52.022;5.534;2023-07-09T01:37:17;23.60;67.80
65046;DHT22;54657;52.022;5.534;2023-07-09T01:39:43;23.50;67.80
65046;DHT22;54657;52.022;5.534;2023-07-09T01:42:09;23.60;67.80
65046;DHT22;54657;52.022;5.534;2023-07-09T01:44:36;23.50;67.90
65046;DHT22;54657;52.022;5.534;2023-07-09T01:47:02;23.50;67.90
65046;DHT22;54657;52.022;5.534;2023-07-09T01:49:30;23.50;68.60
65046;DHT22;54657;52.022;5.534;2023-07-09T01:52:01;23.40;68.00
65046;DHT22;54657;52.022;5.534;2023-07-09T01:54:29;23.30;68.20
65046;DHT22;54657;52.022;5.534;2023-07-09T01:57:13;23.30;68.30
65046;DHT22;54657;52.022;5.534;2023-07-09T01:59:39;23.20;69.50
65046;DHT22;54657;52.022;5.534;2023-07-09T02:02:07;23.20;68.70
65046;DHT22;54657;52.022;5.534;2023-07-09T02:04:33;23.20;68.60
65046;DHT22;54657;52.022;5.534;2023-07-09T02:06:58;23.10;68.60
65046;DHT22;54657;52.022;5.534;2023-07-09T02:09:24;23.10;68.90
65046;DHT22;54657;52.022;5.534;2023-07-09T02:11:50;23.00;69.00
65046;DHT22;54657;52.022;5.534;2023-07-09T02:14:16;22.90;69.40
65046;DHT22;54657;52.022;5.534;2023-07-09T02:16:41;22.90;69.50
65046;DHT22;54657;52.022;5.534;2023-07-09T02:19:07;22.90;69.60
65046;DHT22;54657;52.022;5.534;2023-07-09T02:21:33;22.90;69.70
65046;DHT22;54657;52.022;5.534;2023-07-09T02:23:58;23.00;69.60
65046;DHT22;54657;52.022;5.534;2023-07-09T02:26:24;22.90;69.70
65046;DHT22;54657;52.022;5.534;2023-07-09T02:28:50;23.00;69.80
65046;DHT22;54657;52.022;5.534;2023-07-09T02:31:15;23.00;69.70
65046;DHT22;54657;52.022;5.534;2023-07-09T02:33:41;22.90;69.70
65046;DHT22;54657;52.022;5.534;2023-07-09T02:36:07;22.90;69.90
65046;DHT22;54657;52.022;5.534;2023-07-09T02:38:33;22.90;70.10
65046;DHT22;54657;52.022;5.534;2023-07-09T02:40:59;22.90;70.10
65046;DHT22;54657;52.022;5.534;2023-07-09T02:43:24;22.90;70.20
65046;DHT22;54657;52.022;5.534;2023-07-09T02:45:50;22.90;70.20
65046;DHT22;54657;52.022;5.534;2023-07-09T02:48:15;22.80;70.30
65046;DHT22;54657;52.022;5.534;2023-07-09T02:50:41;22.80;70.30
65046;DHT22;54657;52.022;5.534;2023-07-09T02:53:07;22.80;70.30
65046;DHT22;54657;52.022;5.534;2023-07-09T02:55:32;22.80;70.60
65046;DHT22;54657;52.022;5.534;2023-07-09T02:57:59;22.70;70.70
65046;DHT22;54657;52.022;5.534;2023-07-09T03:00:25;22.70;70.80
65046;DHT22;54657;52.022;5.534;2023-07-09T03:02:50;22.60;70.70
65046;DHT22;54657;52.022;5.534;2023-07-09T03:05:16;22.60;70.90
65046;DHT22;54657;52.022;5.534;2023-07-09T03:07:41;22.60;71.00
65046;DHT22;54657;52.022;5.534;2023-07-09T03:10:07;22.60;71.10
65046;DHT22;54657;52.022;5.534;2023-07-09T03:12:33;22.60;71.20
65046;DHT22;54657;52.022;5.534;2023-07-09T03:14:59;22.60;71.30
65046;DHT22;54657;52.022;5.534;2023-07-09T03:17:24;22.60;71.40
65046;DHT22;54657;52.022;5.534;2023-07-09T03:19:50;22.60;71.50
65046;DHT22;54657;52.022;5.534;2023-07-09T03:22:16;22.60;71.50
65046;DHT22;54657;52.022;5.534;2023-07-09T03:24:42;22.60;71.50
65046;DHT22;54657;52.022;5.534;2023-07-09T03:27:08;22.60;71.60
65046;DHT22;54657;52.022;5.534;2023-07-09T03:29:33;22.60;71.70
65046;DHT22;54657;52.022;5.534;2023-07-09T03:31:59;22.60;71.60
65046;DHT22;54657;52.022;5.534;2023-07-09T03:34:24;22.60;71.90
65046;DHT22;54657;52.022;5.534;2023-07-09T03:36:50;22.50;72.00
65046;DHT22;54657;52.022;5.534;2023-07-09T03:39:15;22.50;72.10
65046;DHT22;54657;52.022;5.534;2023-07-09T03:41:41;22.50;72.10
65046;DHT22;54657;52.022;5.534;2023-07-09T03:44:07;22.50;72.20
65046;DHT22;54657;52.022;5.534;2023-07-09T03:46:32;22.50;72.20
65046;DHT22;54657;52.022;5.534;2023-07-09T03:48:58;22.50;72.30
65046;DHT22;54657;52.022;5.534;2023-07-09T03:51:24;22.50;72.30
65046;DHT22;54657;52.022;5.534;2023-07-09T03:53:50;22.50;72.30
65046;DHT22;54657;52.022;5.534;2023-07-09T03:56:15;22.50;72.40
65046;DHT22;54657;52.022;5.534;2023-07-09T03:58:41;22.50;72.60
65046;DHT22;54657;52.022;5.534;2023-07-09T04:01:06;22.40;72.70
65046;DHT22;54657;52.022;5.534;2023-07-09T04:03:32;22.50;72.80
65046;DHT22;54657;52.022;5.534;2023-07-09T04:05:58;22.50;72.80
65046;DHT22;54657;52.022;5.534;2023-07-09T04:08:24;22.40;72.90
65046;DHT22;54657;52.022;5.534;2023-07-09T04:10:53;22.40;73.20
65046;DHT22;54657;52.022;5.534;2023-07-09T04:13:19;22.50;73.10
65046;DHT22;54657;52.022;5.534;2023-07-09T04:15:44;22.50;73.10
65046;DHT22;54657;52.022;5.534;2023-07-09T04:18:10;22.50;73.20
65046;DHT22;54657;52.022;5.534;2023-07-09T04:20:35;22.50;73.20
65046;DHT22;54657;52.022;5.534;2023-07-09T04:23:01;22.60;73.10
65046;DHT22;54657;52.022;5.534;2023-07-09T04:25:27;22.60;73.20
65046;DHT22;54657;52.022;5.534;2023-07-09T04:27:52;22.60;73.20
65046;DHT22;54657;52.022;5.534;2023-07-09T04:30:18;22.70;73.20
65046;DHT22;54657;52.022;5.534;2023-07-09T04:32:44;22.80;73.10
65046;DHT22;54657;52.022;5.534;2023-07-09T04:35:11;22.80;73.20
65046;DHT22;54657;52.022;5.534;2023-07-09T04:37:38;22.90;73.10
65046;DHT22;54657;52.022;5.534;2023-07-09T04:40:06;22.90;73.30
65046;DHT22;54657;52.022;5.534;2023-07-09T04:42:32;22.90;73.20
65046;DHT22;54657;52.022;5.534;2023-07-09T04:44:57;23.00;73.20
65046;DHT22;54657;52.022;5.534;2023-07-09T04:47:23;23.00;73.30
65046;DHT22;54657;52.022;5.534;2023-07-09T04:49:49;23.10;73.40
65046;DHT22;54657;52.022;5.534;2023-07-09T04:52:14;23.10;73.50
65046;DHT22;54657;52.022;5.534;2023-07-09T04:54:41;23.10;73.50
65046;DHT22;54657;52.022;5.534;2023-07-09T04:57:10;23.20;73.60
65046;DHT22;54657;52.022;5.534;2023-07-09T04:59:36;23.20;73.60
65046;DHT22;54657;52.022;5.534;2023-07-09T05:02:02;23.20;73.70
65046;DHT22;54657;52.022;5.534;2023-07-09T05:04:29;23.20;73.60
65046;DHT22;54657;52.022;5.534;2023-07-09T05:06:56;23.30;73.80
65046;DHT22;54657;52.022;5.534;2023-07-09T05:09:21;23.30;73.90
65046;DHT22;54657;52.022;5.534;2023-07-09T05:11:49;23.30;73.90
65046;DHT22;54657;52.022;5.534;2023-07-09T05:14:15;23.40;74.00
65046;DHT22;54657;52.022;5.534;2023-07-09T05:16:41;23.40;73.90
65046;DHT22;54657;52.022;5.534;2023-07-09T05:19:07;23.50;74.00
65046;DHT22;54657;52.022;5.534;2023-07-09T05:21:34;23.50;74.00
65046;DHT22;54657;52.022;5.534;2023-07-09T05:23:59;23.60;73.90
65046;DHT22;54657;52.022;5.534;2023-07-09T05:26:25;23.70;74.20
65046;DHT22;54657;52.022;5.534;2023-07-09T05:28:51;23.70;74.30
65046;DHT22;54657;52.022;5.534;2023-07-09T05:31:16;23.70;74.30
65046;DHT22;54657;52.022;5.534;2023-07-09T05:33:42;23.80;74.40
65046;DHT22;54657;52.022;5.534;2023-07-09T05:36:08;23.80;74.60
65046;DHT22;54657;52.022;5.534;2023-07-09T05:38:39;23.80;74.70
65046;DHT22;54657;52.022;5.534;2023-07-09T05:41:04;23.90;74.70
65046;DHT22;54657;52.022;5.534;2023-07-09T05:43:30;24.00;74.80
65046;DHT22;54657;52.022;5.534;2023-07-09T05:45:56;24.00;74.70
65046;DHT22;54657;52.022;5.534;2023-07-09T05:48:22;24.10;74.90
65046;DHT22;54657;52.022;5.534;2023-07-09T05:50:52;24.10;75.00
65046;DHT22;54657;52.022;5.534;2023-07-09T05:53:18;24.20;74.90
65046;DHT22;54657;52.022;5.534;2023-07-09T05:55:43;24.30;75.10
65046;DHT22;54657;52.022;5.534;2023-07-09T05:58:09;24.30;74.90
65046;DHT22;54657;52.022;5.534;2023-07-09T06:00:34;24.50;74.90
65046;DHT22;54657;52.022;5.534;2023-07-09T06:03:03;24.60;74.80
65046;DHT22;54657;52.022;5.534;2023-07-09T06:05:33;24.70;74.70
65046;DHT22;54657;52.022;5.534;2023-07-09T06:07:58;24.70;74.70
65046;DHT22;54657;52.022;5.534;2023-07-09T06:10:24;24.80;74.60
65046;DHT22;54657;52.022;5.534;2023-07-09T06:12:50;24.90;74.60
65046;DHT22;54657;52.022;5.534;2023-07-09T06:15:16;25.00;74.60
65046;DHT22;54657;52.022;5.534;2023-07-09T06:17:42;25.00;74.60
65046;DHT22;54657;52.022;5.534;2023-07-09T06:20:08;25.20;74.80
65046;DHT22;54657;52.022;5.534;2023-07-09T06:22:34;25.20;74.60
65046;DHT22;54657;52.022;5.534;2023-07-09T06:25:01;25.30;74.60
65046;DHT22;54657;52.022;5.534;2023-07-09T06:27:26;25.40;74.70
65046;DHT22;54657;52.022;5.534;2023-07-09T06:29:52;25.40;74.50
65046;DHT22;54657;52.022;5.534;2023-07-09T06:32:18;25.50;74.50
65046;DHT22;54657;52.022;5.534;2023-07-09T06:34:43;25.60;74.70
65046;DHT22;54657;52.022;5.534;2023-07-09T06:37:09;25.60;74.70
65046;DHT22;54657;52.022;5.534;2023-07-09T06:39:34;25.70;74.70
65046;DHT22;54657;52.022;5.534;2023-07-09T06:42:00;25.80;74.80
65046;DHT22;54657;52.022;5.534;2023-07-09T06:44:26;25.90;74.80
65046;DHT22;54657;52.022;5.534;2023-07-09T06:46:52;26.00;74.70
65046;DHT22;54657;52.022;5.534;2023-07-09T06:49:17;26.10;74.60
65046;DHT22;54657;52.022;5.534;2023-07-09T06:51:43;26.30;74.50
65046;DHT22;54657;52.022;5.534;2023-07-09T06:54:12;26.40;74.30
65046;DHT22;54657;52.022;5.534;2023-07-09T06:56:38;26.60;74.60
65046;DHT22;54657;52.022;5.534;2023-07-09T06:59:03;26.70;74.30
65046;DHT22;54657;52.022;5.534;2023-07-09T07:01:29;26.80;73.80
65046;DHT22;54657;52.022;5.534;2023-07-09T07:03:57;26.90;73.80
65046;DHT22;54657;52.022;5.534;2023-07-09T07:06:26;27.10;73.80
65046;DHT22;54657;52.022;5.534;2023-07-09T07:08:52;27.30;73.60
65046;DHT22;54657;52.022;5.534;2023-07-09T07:11:23;27.50;73.50
65046;DHT22;54657;52.022;5.534;2023-07-09T07:13:59;27.60;73.60
65046;DHT22;54657;52.022;5.534;2023-07-09T07:16:24;27.80;73.10
65046;DHT22;54657;52.022;5.534;2023-07-09T07:18:50;27.90;72.80
65046;DHT22;54657;52.022;5.534;2023-07-09T07:21:16;28.00;72.50
65046;DHT22;54657;52.022;5.534;2023-07-09T07:23:44;28.00;72.30
65046;DHT22;54657;52.022;5.534;2023-07-09T07:26:12;28.10;72.20
65046;DHT22;54657;52.022;5.534;2023-07-09T07:28:41;28.30;72.00
65046;DHT22;54657;52.022;5.534;2023-07-09T07:31:16;28.40;71.90
65046;DHT22;54657;52.022;5.534;2023-07-09T07:34:02;28.50;72.10
65046;DHT22;54657;52.022;5.534;2023-07-09T07:36:30;28.60;72.20
65046;DHT22;54657;52.022;5.534;2023-07-09T07:38:56;28.60;72.10
65046;DHT22;54657;52.022;5.534;2023-07-09T07:41:21;28.70;72.00
65046;DHT22;54657;52.022;5.534;2023-07-09T07:43:47;28.90;71.90
65046;DHT22;54657;52.022;5.534;2023-07-09T07:46:12;29.00;71.70
65046;DHT22;54657;52.022;5.534;2023-07-09T07:48:38;29.10;71.50
65046;DHT22;54657;52.022;5.534;2023-07-09T07:51:04;29.10;71.20
65046;DHT22;54657;52.022;5.534;2023-07-09T07:53:30;29.20;71.10
65046;DHT22;54657;52.022;5.534;2023-07-09T07:55:59;29.30;71.00
65046;DHT22;54657;52.022;5.534;2023-07-09T07:58:27;29.40;70.60
65046;DHT22;54657;52.022;5.534;2023-07-09T08:00:56;29.40;70.30
65046;DHT22;54657;52.022;5.534;2023-07-09T08:03:25;29.50;70.20
65046;DHT22;54657;52.022;5.534;2023-07-09T08:05:51;29.50;70.00
65046;DHT22;54657;52.022;5.534;2023-07-09T08:08:17;29.60;69.90
65046;DHT22;54657;52.022;5.534;2023-07-09T08:10:43;29.60;69.70
65046;DHT22;54657;52.022;5.534;2023-07-09T08:13:11;29.60;69.60
65046;DHT22;54657;52.022;5.534;2023-07-09T08:15:37;29.70;69.30
65046;DHT22;54657;52.022;5.534;2023-07-09T08:18:02;29.70;69.50
65046;DHT22;54657;52.022;5.534;2023-07-09T08:20:28;29.80;69.20
65046;DHT22;54657;52.022;5.534;2023-07-09T08:22:54;29.80;69.30
65046;DHT22;54657;52.022;5.534;2023-07-09T08:25:22;29.90;69.00
65046;DHT22;54657;52.022;5.534;2023-07-09T08:27:48;29.90;68.70
65046;DHT22;54657;52.022;5.534;2023-07-09T08:30:14;30.00;68.90
65046;DHT22;54657;52.022;5.534;2023-07-09T08:32:39;30.10;68.50
65046;DHT22;54657;52.022;5.534;2023-07-09T08:35:05;30.20;68.20
65046;DHT22;54657;52.022;5.534;2023-07-09T08:37:31;30.20;68.20
65046;DHT22;54657;52.022;5.534;2023-07-09T08:39:57;30.20;68.10
65046;DHT22;54657;52.022;5.534;2023-07-09T08:42:40;30.30;68.20
65046;DHT22;54657;52.022;5.534;2023-07-09T08:45:18;30.40;67.00
65046;DHT22;54657;52.022;5.534;2023-07-09T08:48:04;30.40;67.30
65046;DHT22;54657;52.022;5.534;2023-07-09T08:50:40;30.40;67.30
65046;DHT22;54657;52.022;5.534;2023-07-09T08:53:18;30.40;67.50
65046;DHT22;54657;52.022;5.534;2023-07-09T08:55:45;30.40;67.10
65046;DHT22;54657;52.022;5.534;2023-07-09T08:58:24;30.40;67.30
65046;DHT22;54657;52.022;5.534;2023-07-09T09:00:59;30.50;66.20
65046;DHT22;54657;52.022;5.534;2023-07-09T09:03:47;30.50;67.00
65046;DHT22;54657;52.022;5.534;2023-07-09T09:06:25;30.60;67.10
65046;DHT22;54657;52.022;5.534;2023-07-09T09:14:03;30.70;65.90
65046;DHT22;54657;52.022;5.534;2023-07-09T09:16:38;30.70;66.10
65046;DHT22;54657;52.022;5.534;2023-07-09T09:19:19;30.80;66.10
65046;DHT22;54657;52.022;5.534;2023-07-09T09:21:47;30.80;66.00
65046;DHT22;54657;52.022;5.534;2023-07-09T09:24:35;30.90;66.30
65046;DHT22;54657;52.022;5.534;2023-07-09T09:27:02;30.90;64.80
65046;DHT22;54657;52.022;5.534;2023-07-09T09:29:28;31.00;65.30
65046;DHT22;54657;52.022;5.534;2023-07-09T09:31:56;31.00;65.20
65046;DHT22;54657;52.022;5.534;2023-07-09T09:34:26;31.10;65.10
65046;DHT22;54657;52.022;5.534;2023-07-09T09:36:57;31.20;64.70
65046;DHT22;54657;52.022;5.534;2023-07-09T09:39:24;31.10;64.80
65046;DHT22;54657;52.022;5.534;2023-07-09T09:41:54;31.10;64.60
65046;DHT22;54657;52.022;5.534;2023-07-09T09:44:25;31.20;64.40
65046;DHT22;54657;52.022;5.534;2023-07-09T09:46:51;31.20;64.30
65046;DHT22;54657;52.022;5.534;2023-07-09T09:49:18;31.20;63.60
65046;DHT22;54657;52.022;5.534;2023-07-09T09:51:45;31.20;64.40
65046;DHT22;54657;52.022;5.534;2023-07-09T09:54:24;31.30;64.10
65046;DHT22;54657;52.022;5.534;2023-07-09T09:56:53;31.40;63.00
65046;DHT22;54657;52.022;5.534;2023-07-09T09:59:31;31.40;63.70
65046;DHT22;54657;52.022;5.534;2023-07-09T10:01:59;31.40;62.80
65046;DHT22;54657;52.022;5.534;2023-07-09T10:04:25;31.50;63.60
65046;DHT22;54657;52.022;5.534;2023-07-09T10:06:55;31.50;63.30
65046;DHT22;54657;52.022;5.534;2023-07-09T10:18:10;31.60;61.10
65046;DHT22;54657;52.022;5.534;2023-07-09T10:21:06;31.70;61.30
65046;DHT22;54657;52.022;5.534;2023-07-09T10:23:53;31.80;60.80
65046;DHT22;54657;52.022;5.534;2023-07-09T10:31:50;31.80;60.80
65046;DHT22;54657;52.022;5.534;2023-07-09T10:39:46;32.00;59.10
65046;DHT22;54657;52.022;5.534;2023-07-09T10:45:01;32.20;59.70
65046;DHT22;54657;52.022;5.534;2023-07-09T10:47:36;32.30;59.20
65046;DHT22;54657;52.022;5.534;2023-07-09T10:50:06;32.40;58.20
65046;DHT22;54657;52.022;5.534;2023-07-09T10:52:37;32.40;59.40
65046;DHT22;54657;52.022;5.534;2023-07-09T10:55:30;32.40;59.00
65046;DHT22;54657;52.022;5.534;2023-07-09T10:58:05;32.50;58.50
65046;DHT22;54657;52.022;5.534;2023-07-09T11:00:36;32.50;58.70
65046;DHT22;54657;52.022;5.534;2023-07-09T11:03:35;32.50;58.00
65046;DHT22;54657;52.022;5.534;2023-07-09T11:06:04;32.60;57.20
65046;DHT22;54657;52.022;5.534;2023-07-09T11:08:37;32.60;58.50
65046;DHT22;54657;52.022;5.534;2023-07-09T11:11:09;32.70;57.90
65046;DHT22;54657;52.022;5.534;2023-07-09T11:13:44;32.70;57.90
65046;DHT22;54657;52.022;5.534;2023-07-09T11:16:24;32.80;56.80
65046;DHT22;54657;52.022;5.534;2023-07-09T11:18:58;32.80;57.00
65046;DHT22;54657;52.022;5.534;2023-07-09T11:21:24;32.90;57.10
65046;DHT22;54657;52.022;5.534;2023-07-09T11:23:55;32.90;57.50
65046;DHT22;54657;52.022;5.534;2023-07-09T11:26:33;32.90;57.20
65046;DHT22;54657;52.022;5.534;2023-07-09T11:31:34;32.80;56.90
65046;DHT22;54657;52.022;5.534;2023-07-09T11:34:20;32.70;54.20
65046;DHT22;54657;52.022;5.534;2023-07-09T11:39:31;32.70;55.60
65046;DHT22;54657;52.022;5.534;2023-07-09T11:41:58;32.70;56.50
65046;DHT22;54657;52.022;5.534;2023-07-09T11:44:29;32.70;57.00
65046;DHT22;54657;52.022;5.534;2023-07-09T11:50:00;32.90;56.00
65046;DHT22;54657;52.022;5.534;2023-07-09T11:52:41;32.90;55.10
65046;DHT22;54657;52.022;5.534;2023-07-09T11:57:52;32.90;55.80
65046;DHT22;54657;52.022;5.534;2023-07-09T12:00:18;32.90;55.80
65046;DHT22;54657;52.022;5.534;2023-07-09T12:02:43;32.90;56.40
65046;DHT22;54657;52.022;5.534;2023-07-09T12:05:10;32.90;56.30
65046;DHT22;54657;52.022;5.534;2023-07-09T12:07:35;32.90;56.10
65046;DHT22;54657;52.022;5.534;2023-07-09T12:10:03;32.90;55.90
65046;DHT22;54657;52.022;5.534;2023-07-09T12:12:34;32.90;55.90
65046;DHT22;54657;52.022;5.534;2023-07-09T12:15:07;32.80;56.00
65046;DHT22;54657;52.022;5.534;2023-07-09T12:17:37;32.80;55.90
65046;DHT22;54657;52.022;5.534;2023-07-09T12:20:04;32.80;56.30
65046;DHT22;54657;52.022;5.534;2023-07-09T12:22:31;32.80;56.30
65046;DHT22;54657;52.022;5.534;2023-07-09T12:24:57;32.70;56.70
65046;DHT22;54657;52.022;5.534;2023-07-09T12:27:25;32.80;56.70
65046;DHT22;54657;52.022;5.534;2023-07-09T12:29:56;32.80;56.50
65046;DHT22;54657;52.022;5.534;2023-07-09T12:32:28;32.80;56.60
65046;DHT22;54657;52.022;5.534;2023-07-09T12:34:55;32.80;57.40
65046;DHT22;54657;52.022;5.534;2023-07-09T12:37:22;32.70;57.20
65046;DHT22;54657;52.022;5.534;2023-07-09T12:39:50;32.80;57.10
65046;DHT22;54657;52.022;5.534;2023-07-09T12:42:24;32.80;57.10
65046;DHT22;54657;52.022;5.534;2023-07-09T12:44:59;32.80;56.60
65046;DHT22;54657;52.022;5.534;2023-07-09T12:47:24;32.70;56.90
65046;DHT22;54657;52.022;5.534;2023-07-09T12:49:51;32.70;55.40
65046;DHT22;54657;52.022;5.534;2023-07-09T12:52:21;32.70;57.10
65046;DHT22;54657;52.022;5.534;2023-07-09T12:54:58;32.70;57.00
65046;DHT22;54657;52.022;5.534;2023-07-09T12:57:25;32.70;57.30
65046;DHT22;54657;52.022;5.534;2023-07-09T12:59:51;32.70;57.30
65046;DHT22;54657;52.022;5.534;2023-07-09T13:02:20;32.80;57.50
65046;DHT22;54657;52.022;5.534;2023-07-09T13:04:48;32.70;57.30
65046;DHT22;54657;52.022;5.534;2023-07-09T13:07:30;32.70;57.50
65046;DHT22;54657;52.022;5.534;2023-07-09T13:10:25;32.60;58.40
65046;DHT22;54657;52.022;5.534;2023-07-09T13:12:55;32.50;59.00
65046;DHT22;54657;52.022;5.534;2023-07-09T13:15:29;32.30;59.20
65046;DHT22;54657;52.022;5.534;2023-07-09T13:18:01;32.10;59.60
65046;DHT22;54657;52.022;5.534;2023-07-09T13:20:28;31.80;59.60
65046;DHT22;54657;52.022;5.534;2023-07-09T13:22:55;31.50;60.30
65046;DHT22;54657;52.022;5.534;2023-07-09T13:25:21;31.30;60.50
65046;DHT22;54657;52.022;5.534;2023-07-09T13:27:46;31.10;60.70
65046;DHT22;54657;52.022;5.534;2023-07-09T13:30:12;31.00;61.00
65046;DHT22;54657;52.022;5.534;2023-07-09T13:32:38;31.00;60.90
65046;DHT22;54657;52.022;5.534;2023-07-09T13:35:13;31.10;61.00
65046;DHT22;54657;52.022;5.534;2023-07-09T13:37:40;31.10;60.60
65046;DHT22;54657;52.022;5.534;2023-07-09T13:40:09;30.90;60.20
65046;DHT22;54657;52.022;5.534;2023-07-09T13:42:36;30.80;60.00
65046;DHT22;54657;52.022;5.534;2023-07-09T13:45:02;30.70;59.90
65046;DHT22;54657;52.022;5.534;2023-07-09T13:47:28;30.50;60.10
65046;DHT22;54657;52.022;5.534;2023-07-09T13:49:54;30.50;60.10
65046;DHT22;54657;52.022;5.534;2023-07-09T13:52:22;30.30;60.10
65046;DHT22;54657;52.022;5.534;2023-07-09T13:54:51;30.20;60.90
65046;DHT22;54657;52.022;5.534;2023-07-09T13:57:19;30.10;60.30
65046;DHT22;54657;52.022;5.534;2023-07-09T13:59:45;30.00;60.40
65046;DHT22;54657;52.022;5.534;2023-07-09T14:02:27;29.90;60.60
65046;DHT22;54657;52.022;5.534;2023-07-09T14:05:02;29.80;60.60
65046;DHT22;54657;52.022;5.534;2023-07-09T14:07:32;29.60;60.40
65046;DHT22;54657;52.022;5.534;2023-07-09T14:09:59;29.40;60.70
65046;DHT22;54657;52.022;5.534;2023-07-09T14:12:26;29.20;60.70
65046;DHT22;54657;52.022;5.534;2023-07-09T14:14:53;29.10;60.70
65046;DHT22;54657;52.022;5.534;2023-07-09T14:17:20;28.90;60.70
65046;DHT22;54657;52.022;5.534;2023-07-09T14:19:47;28.90;60.80
65046;DHT22;54657;52.022;5.534;2023-07-09T14:22:32;28.70;60.80
65046;DHT22;54657;52.022;5.534;2023-07-09T14:25:02;28.70;60.90
65046;DHT22;54657;52.022;5.534;2023-07-09T14:27:28;28.40;60.80
65046;DHT22;54657;52.022;5.534;2023-07-09T14:29:54;28.30;60.90
65046;DHT22;54657;52.022;5.534;2023-07-09T14:32:35;28.20;61.00
65046;DHT22;54657;52.022;5.534;2023-07-09T14:35:18;28.10;61.30
65046;DHT22;54657;52.022;5.534;2023-07-09T14:37:52;28.00;61.40
65046;DHT22;54657;52.022;5.534;2023-07-09T14:40:22;27.90;61.40
65046;DHT22;54657;52.022;5.534;2023-07-09T14:42:49;27.80;61.80
65046;DHT22;54657;52.022;5.534;2023-07-09T14:45:23;27.70;62.10
65046;DHT22;54657;52.022;5.534;2023-07-09T14:47:50;27.70;62.60
65046;DHT22;54657;52.022;5.534;2023-07-09T14:50:22;27.50;63.20
65046;DHT22;54657;52.022;5.534;2023-07-09T14:52:48;27.10;64.60
65046;DHT22;54657;52.022;5.534;2023-07-09T14:55:23;26.50;66.20
65046;DHT22;54657;52.022;5.534;2023-07-09T14:57:54;26.10;71.70
65046;DHT22;54657;52.022;5.534;2023-07-09T15:00:22;25.60;69.50
65046;DHT22;54657;52.022;5.534;2023-07-09T15:02:49;25.20;70.10
65046;DHT22;54657;52.022;5.534;2023-07-09T15:05:19;24.90;71.40
65046;DHT22;54657;52.022;5.534;2023-07-09T15:08:00;24.80;72.70
65046;DHT22;54657;52.022;5.534;2023-07-09T15:10:27;24.70;72.80
65046;DHT22;54657;52.022;5.534;2023-07-09T15:12:53;24.50;73.50
65046;DHT22;54657;52.022;5.534;2023-07-09T15:15:29;24.40;73.90
65046;DHT22;54657;52.022;5.534;2023-07-09T15:17:56;24.40;75.10
65046;DHT22;54657;52.022;5.534;2023-07-09T15:20:23;24.40;74.40
65046;DHT22;54657;52.022;5.534;2023-07-09T15:23:09;24.40;74.60
65046;DHT22;54657;52.022;5.534;2023-07-09T15:25:36;24.40;75.90
65046;DHT22;54657;52.022;5.534;2023-07-09T15:28:01;24.50;75.40
65046;DHT22;54657;52.022;5.534;2023-07-09T15:30:29;24.50;75.70
65046;DHT22;54657;52.022;5.534;2023-07-09T15:36:18;24.60;78.70
65046;DHT22;54657;52.022;5.534;2023-07-09T15:38:44;24.60;75.60
65046;DHT22;54657;52.022;5.534;2023-07-09T15:41:13;24.50;75.80
65046;DHT22;54657;52.022;5.534;2023-07-09T15:43:42;24.40;78.30
65046;DHT22;54657;52.022;5.534;2023-07-09T15:46:20;24.30;77.00
65046;DHT22;54657;52.022;5.534;2023-07-09T15:48:47;24.30;77.50
65046;DHT22;54657;52.022;5.534;2023-07-09T15:51:13;24.20;77.40
65046;DHT22;54657;52.022;5.534;2023-07-09T15:53:39;24.20;77.30
65046;DHT22;54657;52.022;5.534;2023-07-09T15:56:37;24.20;77.50
65046;DHT22;54657;52.022;5.534;2023-07-09T15:59:03;24.10;81.60
65046;DHT22;54657;52.022;5.534;2023-07-09T16:01:29;24.10;78.10
65046;DHT22;54657;52.022;5.534;2023-07-09T16:04:00;24.10;78.70
65046;DHT22;54657;52.022;5.534;2023-07-09T16:06:26;24.20;79.70
65046;DHT22;54657;52.022;5.534;2023-07-09T16:08:52;24.20;78.40
65046;DHT22;54657;52.022;5.534;2023-07-09T16:11:20;24.10;78.20
65046;DHT22;54657;52.022;5.534;2023-07-09T16:13:47;24.10;78.60
65046;DHT22;54657;52.022;5.534;2023-07-09T16:16:18;24.10;78.30
65046;DHT22;54657;52.022;5.534;2023-07-09T16:18:45;24.00;79.40
65046;DHT22;54657;52.022;5.534;2023-07-09T16:21:25;24.00;79.20
65046;DHT22;54657;52.022;5.534;2023-07-09T16:23:52;24.00;82.20
65046;DHT22;54657;52.022;5.534;2023-07-09T16:26:18;23.90;79.80
65046;DHT22;54657;52.022;5.534;2023-07-09T16:28:46;23.90;80.30